KD0RIH Weather Reports


Display with metric or nautical units.
time (UTC)temp
F
wind
direction
speed
MPH
gust
MPH
rain 1hr
in
rain 24hr
in
rain mn
in
humidity
%
barometer
mb
20191023020030 42 0.0 0.0 0.00 1.09 1.09 99
20191023015015 42 0.0 0.0 0.00 1.09 1.09 99
20191023014018 42 0.0 0.0 0.00 1.09 1.09 99
20191023013021 42 0.0 0.0 0.00 1.09 1.09 99
20191023012023 41 0.0 0.0 0.00 1.09 1.09 99
20191023011026 41 0.0 0.0 0.00 1.09 1.09 99
20191023010023 42 0.0 0.0 0.00 1.09 1.09 99
20191023005020 43 0.0 0.0 0.00 1.09 1.09 99
20191023004016 44 0.0 0.0 0.00 1.09 1.09 99
20191023003019 45 0.0 0.0 0.00 1.09 1.09 99
20191023002021 46 0.0 0.0 0.00 1.09 1.09 99
20191023001024 47 0.0 0.0 0.00 1.09 1.09 99
20191023000027 49 0.0 1.0 0.00 1.09 1.09 99
20191022235030 50 158 0.0 2.0 0.00 1.09 1.09 99
20191022234032 51 267 1.0 3.0 0.00 1.09 1.09 99
20191022233017 52 216 3.0 4.0 0.00 1.09 1.09 99
20191022232020 53 242 2.0 4.0 0.00 1.09 1.09 99
20191022231023 53 221 3.0 5.0 0.00 1.09 1.09 99
20191022230025 54 302 6.0 10.0 0.00 1.09 1.09 99
20191022225028 55 251 5.0 9.0 0.00 1.09 1.09 99
20191022224030 56 243 6.0 9.0 0.00 1.09 1.09 99
20191022223016 57 301 4.0 6.0 0.00 1.09 1.09 99
20191022222018 58 243 6.0 13.0 0.00 1.09 1.09 99
20191022221021 58 255 5.0 11.0 0.00 1.09 1.09 99
20191022220024 59 268 7.0 10.0 0.00 1.09 1.09 99
20191022215020 60 229 4.0 7.0 0.00 1.09 1.09 99
20191022214017 59 325 6.0 13.0 0.00 1.09 1.09 99
20191022213032 59 259 7.0 12.0 0.00 1.09 1.09 99
20191022212017 59 265 7.0 11.0 0.00 1.09 1.09 99
20191022211019 60 233 7.0 10.0 0.00 1.09 1.09 99
20191022210022 60 151 6.0 8.0 0.00 1.09 1.09 99
20191022205025 60 216 8.0 15.0 0.00 1.09 1.09 99
20191022204027 60 236 8.0 15.0 0.00 1.09 1.09 99
20191022203030 60 206 7.0 11.0 0.00 1.09 1.09 99
20191022202015 60 244 7.0 11.0 0.00 1.09 1.09 99
20191022201018 59 141 7.0 11.0 0.00 1.09 1.09 99
20191022200021 60 279 6.0 10.0 0.00 1.09 1.09 99
20191022195023 59 234 6.0 10.0 0.00 1.09 1.09 99
20191022194026 59 171 9.0 16.0 0.00 1.09 1.09 99
20191022193028 59 277 8.0 14.0 0.00 1.09 1.09 99
20191022192031 59 255 7.0 15.0 0.00 1.09 1.09 99
20191022191016 59 247 8.0 15.0 0.00 1.09 1.09 99
20191022190019 60 186 8.0 16.0 0.00 1.09 1.09 99
20191022185022 59 179 5.0 8.0 0.00 1.09 1.09 99
20191022184018 58 4 8.0 18.0 0.00 1.09 1.09 99
20191022183015 58 247 7.0 11.0 0.00 1.09 1.09 99
20191022182030 57 339 9.0 15.0 0.00 1.09 1.09 99
20191022181032 57 258 8.0 13.0 0.00 1.09 1.09 99
20191022180017 57 229 9.0 15.0 0.00 1.09 1.09 99
20191022175019 57 261 7.0 8.0 0.00 1.09 1.09 99
20191022174022 56 242 7.0 11.0 0.00 1.09 1.09 99
20191022173024 56 283 7.0 12.0 0.00 1.09 1.09 99
20191022172027 56 250 7.0 10.0 0.00 1.09 1.09 99
20191022171030 57 260 7.0 11.0 0.00 1.09 1.09 99
20191022170032 56 244 5.0 10.0 0.00 1.09 1.09 99
20191022165018 55 218 12.0 16.0 0.00 2.81 1.09 99
20191022164020 55 266 8.0 10.0 0.00 2.81 1.09 99
20191022163023 55 331 5.0 8.0 0.00 2.81 1.09 99
20191022162026 54 245 6.0 9.0 0.00 2.81 1.09 99
20191022161028 53 230 6.0 13.0 0.00 2.81 1.09 99
20191022160025 52 253 8.0 13.0 0.00 2.81 1.09 99
20191022155016 52 253 7.0 13.0 0.00 2.81 1.09 99
20191022154019 52 252 6.0 9.0 0.00 2.81 1.09 99
20191022153016 51 255 8.0 12.0 0.00 2.81 1.09 99
20191022152024 52 242 7.0 16.0 0.00 2.81 1.09 99
20191022151027 51 192 5.0 9.0 0.00 2.81 1.09 99
20191022150029 50 243 8.0 13.0 0.00 2.81 1.09 99
20191022145032 50 202 6.0 15.0 0.00 2.81 1.09 99
20191022144017 49 238 8.0 14.0 0.00 2.81 1.09 99
20191022143020 49 209 7.0 17.0 0.00 2.81 1.09 99
20191022142022 48 240 6.0 9.0 0.00 2.81 1.09 99
20191022141025 47 232 10.0 17.0 0.00 2.81 1.09 99
20191022140028 47 241 7.0 11.0 0.00 2.81 1.09 99
20191022135030 46 237 8.0 12.0 0.00 2.81 1.09 99
20191022134015 46 239 6.0 9.0 0.00 2.81 1.09 99
20191022133018 45 284 8.0 12.0 0.00 2.81 1.09 99
20191022132021 44 219 4.0 9.0 0.00 2.81 1.09 99
20191022131023 44 233 6.0 10.0 0.00 2.81 1.09 99
20191022130027 43 256 6.0 9.0 0.00 2.81 1.09 99
20191022125023 42 233 6.0 10.0 0.00 2.81 1.09 99
20191022124020 42 247 6.0 9.0 0.00 2.81 1.09 99
20191022123016 42 223 6.0 15.0 0.00 2.81 1.09 99
20191022122019 42 224 6.0 10.0 0.00 2.81 1.09 99
20191022121022 42 212 7.0 9.0 0.00 2.81 1.09 99
20191022120025 42 217 6.0 12.0 0.00 2.81 1.09 99
20191022115029 43 173 5.0 10.0 0.00 2.81 1.09 99
20191022114030 43 279 7.0 12.0 0.00 2.81 1.09 99
20191022113033 43 275 6.0 12.0 0.00 2.81 1.09 99
20191022112018 43 226 6.0 9.0 0.00 2.81 1.09 99
20191022111020 43 225 4.0 9.0 0.00 2.81 1.09 99
20191022110023 43 228 5.0 11.0 1.09 2.81 1.09 99
20191022105026 43 187 5.0 7.0 1.09 2.81 1.09 99
20191022104029 43 231 4.0 7.0 1.09 2.81 1.09 99
20191022103031 44 242 5.0 10.0 1.09 2.81 1.09 99
20191022102016 44 236 5.0 8.0 1.09 2.81 1.09 99
20191022101019 44 225 4.0 8.0 1.09 2.81 1.09 99
20191022100022 44 26 4.0 11.0 0.00 1.72 0.00 99
20191022095024 44 204 6.0 11.0 0.00 1.72 0.00 99
20191022094022 44 237 5.0 11.0 0.00 1.72 0.00 99
20191022093018 45 260 4.0 7.0 0.00 1.72 0.00 99
20191022092033 45 150 4.0 6.0 0.00 1.72 0.00 99
20191022091017 46 238 6.0 8.0 0.00 1.72 0.00 99
20191022090020 46 246 7.0 19.0 0.00 1.72 0.00 99
20191022085023 47 228 5.0 10.0 0.00 1.72 0.00 99
20191022084026 47 243 8.0 15.0 0.00 1.72 0.00 99
20191022083028 47 234 6.0 10.0 0.00 1.72 0.00 99
20191022082031 47 227 7.0 15.0 0.00 1.72 0.00 99
20191022081015 48 204 7.0 11.0 0.00 1.72 0.00 99
20191022080018 48 232 6.0 9.0 0.00 1.72 0.00 99
20191022075021 48 229 5.0 8.0 0.00 1.72 0.00 99
20191022074024 48 282 6.0 11.0 0.00 1.72 0.00 99
20191022073026 48 124 4.0 8.0 0.00 1.72 0.00 99
20191022072029 48 215 7.0 12.0 0.00 1.72 0.00 99
20191022071032 48 232 7.0 12.0 0.00 1.72 0.00 99
20191022070017 48 175 7.0 10.0 0.00 1.72 0.00 99
20191022065020 48 214 7.0 14.0 0.00 1.72 0.00 99
20191022064022 48 234 6.0 11.0 0.00 1.73 0.00 99
20191022063019 48 224 5.0 10.0 0.00 1.73 0.00 99
20191022062016 48 199 6.0 9.0 0.00 1.73 0.00 99
20191022061031 48 238 6.0 11.0 0.00 1.74 0.00 99
20191022060016 48 212 5.0 10.0 0.00 1.75 0.00 99
20191022055018 48 251 6.0 10.0 0.00 1.75 0.00 99
20191022054021 49 257 7.0 14.0 0.00 1.75 0.00 99
20191022053023 49 258 6.0 10.0 0.00 1.75 0.00 99
20191022052026 49 235 6.0 11.0 0.00 1.75 0.00 99
20191022051029 49 309 5.0 12.0 0.00 1.75 0.00 99
20191022050031 49 246 7.0 15.0 0.00 1.75 0.00 99
20191022045016 49 223 6.0 11.0 0.00 1.75 1.75 99
20191022044019 49 239 7.0 11.0 0.00 1.75 1.75 99
20191022043022 50 207 8.0 15.0 0.00 1.75 1.75 99
20191022042025 50 240 8.0 11.0 0.00 1.75 1.75 99
20191022041027 50 250 7.0 15.0 0.00 1.75 1.75 99
20191022040030 50 232 8.0 11.0 0.00 1.75 1.75 99
20191022035027 50 245 8.0 11.0 0.00 1.75 1.75 99
20191022034017 50 225 6.0 15.0 0.00 1.75 1.75 99
20191022033020 0 293 7.0 7.0 0.00 1.75 1.75
20191022032017 50 225 5.0 10.0 0.00 1.75 1.75 99
20191022031026 50 241 5.0 8.0 0.00 1.75 1.75 99
20191022030028 51 273 8.0 12.0 0.00 1.75 1.75 99
20191022025031 52 237 8.0 13.0 0.00 1.75 1.75 99
20191022024015 52 269 6.0 11.0 0.00 1.75 1.75 99
20191022023018 52 263 6.0 11.0 0.00 1.75 1.75 99
20191022022021 52 248 7.0 12.0 0.00 1.75 1.75 99
20191022021024 53 158 5.0 15.0 0.00 1.75 1.75 99